Aérodrome :
LOGIN :

S'inscrire | Disclaimer

   EN    FR    IT 

 










Légende :    VFR   VFR Marginal   IFR   IFR Intensif   IFR Très Intensif
Visi : 
Plafond : 
>= 8 km
>= 3000ft
5 à 8 km
1000 à 3000 ft
1500m à 5 km
500 à 1000 ft
800 à 1500m
200 à 500 ft
< 800m
< 200 ft
Symboles :   Orages  Brouillard  Fortes neiges  Fortes précipitations  Vent > 20 kt
SIGMETs :   Divers  Orages  Givrage  Turbulence  Onde Orograph.  Cendres Volcan.







- Altitude de l'aérodrome : 1276 ft
- Code IATA : STR


EDDS - Stuttgart

DERNIER METAR :
  • 280250Z 25009KT 210V290 9999 -RA FEW010 BKN014 03/02 Q0999 RERA

METARs EXPIRÉS :
  • 280220Z 28015KT 9999 RA SCT011 BKN016 04/02 Q0999
  • 280150Z 29023G34KT 4800 RA SCT013 BKN030 04/03 Q0998
  • 280120Z 29013KT 9999 -RA FEW021 BKN043 08/05 Q0997
  • 280050Z 25005KT 210V280 9999 -RA FEW021 SCT063 BKN083 08/04 Q0997
  • 280020Z 21007KT 180V240 9999 FEW021 SCT072 BKN092 08/04 Q0997

TAF AMD TAF EDDS
Valide du 28 à 02h jusqu'au 01 à 00h UTC


280200Z 2802/2824 22009KT 8000 BKN020
TEMPO 2802/2806 26020G30KT 4000 RA BKN014
TEMPO 2812/2817 SHRA BKN015TCU
PROB30
TEMPO 2818/2821 24015G35KT SHRA BKN020TCU
Pas de NOTAMs connus pour ce terrain.
1 SIGMET publié pour la FIR Langen (EDGG) :
 
Turbulence forte
EDGG SIGMET 1 VALID 280100/280400 EDZF
EDGG LANGEN FIR SEV TURB FCST APRX 50NM WID LINE BTN N5218 E00800 - N4912 E00616 FL180/245 MOV E NC=



MET'MAP, la Météo Aéronautique d'un coup d'oeil ! - Copyright ORBIFLY Décembre 2007 - Disclaimer

ORBIFLY MET'MAP TEAM :

Programmation & Développement : Alexandra Zaïnal
Conception & Développement : Baudouin d'Aumeries
Co-Programmation & Développement : Marc-Olivier Méhu
Soutien technique & logistique : Manuel Goepfert

Contact : metmap@orbifly.com




SOURCES & CREDITS :

   NOAA